createdAt,value
2018-07-07T00:03:28.324Z,13.20
2018-07-07T00:06:03.945Z,13.10
2018-07-07T00:08:38.232Z,13.10
2018-07-07T00:11:14.347Z,13.00
2018-07-07T00:13:50.023Z,13.00
2018-07-07T00:16:24.978Z,13.00
2018-07-07T00:19:00.026Z,13.00
2018-07-07T00:21:35.048Z,13.00
2018-07-07T00:24:10.399Z,13.00
2018-07-07T00:26:44.865Z,12.90
2018-07-07T00:29:19.525Z,12.80
2018-07-07T00:31:54.370Z,12.80
2018-07-07T00:34:29.096Z,12.70
2018-07-07T00:37:04.327Z,12.70
2018-07-07T00:39:39.925Z,12.70
2018-07-07T00:42:17.683Z,12.70
2018-07-07T00:44:53.878Z,12.70
2018-07-07T00:47:30.852Z,12.60
2018-07-07T00:50:06.503Z,12.50
2018-07-07T00:52:43.090Z,12.50
2018-07-07T00:57:54.008Z,12.50
2018-07-07T01:00:39.955Z,12.40
2018-07-07T01:03:15.280Z,12.50
2018-07-07T01:05:52.032Z,12.40
2018-07-07T01:08:28.182Z,12.40
2018-07-07T01:11:04.912Z,12.40
2018-07-07T01:13:44.536Z,12.30
2018-07-07T01:16:19.961Z,12.30
2018-07-07T01:18:54.484Z,12.30
2018-07-07T01:24:04.999Z,12.20
2018-07-07T01:26:41.297Z,12.20
2018-07-07T01:29:15.689Z,12.20
2018-07-07T01:31:50.969Z,12.20
2018-07-07T01:34:25.253Z,12.20
2018-07-07T01:37:00.472Z,12.10
2018-07-07T01:39:34.997Z,12.20
2018-07-07T01:42:10.236Z,12.10
2018-07-07T01:44:45.025Z,12.10
2018-07-07T01:47:20.572Z,12.10
2018-07-07T01:49:56.774Z,12.10
2018-07-07T01:52:31.983Z,12.10
2018-07-07T01:55:06.492Z,12.00
2018-07-07T01:57:41.852Z,12.00
2018-07-07T02:00:16.512Z,12.00
2018-07-07T02:02:51.574Z,12.00
2018-07-07T02:05:26.917Z,12.00
2018-07-07T02:08:01.862Z,12.00
2018-07-07T02:10:42.931Z,11.90
2018-07-07T02:13:17.295Z,11.90
2018-07-07T02:15:53.255Z,11.90
2018-07-07T02:18:28.332Z,11.90
2018-07-07T02:21:04.649Z,11.80
2018-07-07T02:23:40.143Z,11.80
2018-07-07T02:26:19.896Z,11.70
2018-07-07T02:28:56.062Z,11.70
2018-07-07T02:31:30.884Z,11.70
2018-07-07T02:34:13.175Z,11.70
2018-07-07T02:36:47.912Z,11.70
2018-07-07T02:39:22.209Z,11.60
2018-07-07T02:41:57.529Z,11.60
2018-07-07T02:44:32.256Z,11.50
2018-07-07T02:47:06.894Z,11.50
2018-07-07T02:49:41.524Z,11.50
2018-07-07T02:52:15.852Z,11.50
2018-07-07T02:54:53.673Z,11.50
2018-07-07T02:57:36.097Z,11.50
2018-07-07T03:00:11.023Z,11.50
2018-07-07T03:02:54.919Z,11.40
2018-07-07T03:05:29.884Z,11.40
2018-07-07T03:08:06.470Z,11.50
2018-07-07T03:10:43.861Z,11.40
2018-07-07T03:13:18.776Z,11.40
2018-07-07T03:15:55.194Z,11.40
2018-07-07T03:18:34.267Z,11.40
2018-07-07T03:21:11.569Z,11.40
2018-07-07T03:23:46.694Z,11.40
2018-07-07T03:26:21.268Z,11.40
2018-07-07T03:28:55.944Z,11.40
2018-07-07T03:31:31.747Z,11.40
2018-07-07T03:34:07.760Z,11.40
2018-07-07T03:36:41.952Z,11.40
2018-07-07T03:39:17.393Z,11.50
2018-07-07T03:41:52.000Z,11.40
2018-07-07T03:44:26.375Z,11.40
2018-07-07T03:47:13.622Z,11.40
2018-07-07T03:49:51.802Z,11.40
2018-07-07T03:52:27.089Z,11.50
2018-07-07T03:55:06.874Z,11.50
2018-07-07T03:57:45.599Z,11.50
2018-07-07T04:00:23.826Z,11.50
2018-07-07T04:02:58.147Z,11.60
2018-07-07T04:05:35.720Z,11.60
2018-07-07T04:08:11.749Z,11.60
2018-07-07T04:10:46.954Z,11.60
2018-07-07T04:13:23.083Z,11.70
2018-07-07T04:15:58.082Z,11.70
2018-07-07T04:18:34.899Z,11.80
2018-07-07T04:23:47.505Z,11.80
2018-07-07T04:26:25.359Z,11.90
2018-07-07T04:28:59.865Z,12.00
2018-07-07T04:31:34.563Z,12.20
2018-07-07T04:34:09.912Z,12.20
2018-07-07T04:36:44.869Z,12.30
2018-07-07T04:39:19.692Z,12.40
2018-07-07T04:41:57.713Z,12.50
2018-07-07T04:44:34.783Z,12.50
2018-07-07T04:47:10.865Z,12.60
2018-07-07T04:49:52.006Z,12.70
2018-07-07T04:52:31.958Z,12.80
2018-07-07T04:55:07.886Z,12.80
2018-07-07T04:57:46.959Z,12.90
2018-07-07T05:00:22.312Z,13.00
2018-07-07T05:03:03.652Z,13.10
2018-07-07T05:05:37.792Z,13.10
2018-07-07T05:08:13.902Z,13.20
2018-07-07T05:10:54.476Z,13.20
2018-07-07T05:13:33.476Z,13.20
2018-07-07T05:16:09.701Z,13.30
2018-07-07T05:18:43.849Z,13.30
2018-07-07T05:21:19.357Z,13.40
2018-07-07T05:23:54.577Z,13.40
2018-07-07T05:26:29.656Z,13.40
2018-07-07T05:29:07.344Z,13.50
2018-07-07T05:31:42.320Z,13.70
2018-07-07T05:34:16.498Z,13.80
2018-07-07T05:36:50.807Z,14.00
2018-07-07T05:39:25.917Z,14.00
2018-07-07T05:42:00.881Z,14.20
2018-07-07T05:44:37.536Z,14.30
2018-07-07T05:47:12.800Z,14.50
2018-07-07T05:49:48.682Z,14.40
2018-07-07T05:52:24.014Z,14.40
2018-07-07T05:54:59.768Z,14.40
2018-07-07T06:00:09.704Z,14.50
2018-07-07T06:02:48.393Z,14.40
2018-07-07T06:05:23.231Z,14.60
2018-07-07T06:08:03.873Z,14.30
2018-07-07T06:10:40.688Z,14.50
2018-07-07T06:13:18.024Z,14.70
2018-07-07T06:15:53.529Z,14.70
2018-07-07T06:18:28.146Z,14.70
2018-07-07T06:21:06.870Z,14.80
2018-07-07T06:23:42.316Z,14.90
2018-07-07T06:26:18.426Z,15.20
2018-07-07T06:28:59.191Z,15.40
2018-07-07T06:31:39.251Z,15.70
2018-07-07T06:34:17.797Z,15.80
2018-07-07T06:36:53.790Z,16.00
2018-07-07T06:39:30.539Z,16.20
2018-07-07T06:42:06.515Z,16.10
2018-07-07T06:47:16.364Z,16.00
2018-07-07T06:49:51.146Z,16.10
2018-07-07T06:52:25.350Z,16.30
2018-07-07T06:55:01.367Z,16.10
2018-07-07T06:57:35.827Z,16.20
2018-07-07T07:00:11.248Z,16.40
2018-07-07T07:02:52.625Z,16.60
2018-07-07T07:05:28.838Z,16.80
2018-07-07T07:08:02.991Z,17.10
2018-07-07T07:10:38.116Z,17.30
2018-07-07T07:13:13.205Z,17.50
2018-07-07T07:15:48.617Z,17.40
2018-07-07T07:18:24.372Z,17.30
2018-07-07T07:20:59.717Z,17.60
2018-07-07T07:23:34.755Z,17.90
2018-07-07T07:26:10.934Z,17.80
2018-07-07T07:28:45.191Z,17.60
2018-07-07T07:31:21.321Z,17.60
2018-07-07T07:33:56.012Z,17.70
2018-07-07T07:36:37.016Z,17.50
2018-07-07T07:39:12.819Z,17.40
2018-07-07T07:41:58.263Z,17.60
2018-07-07T07:44:36.021Z,17.70
2018-07-07T07:47:11.979Z,17.50
2018-07-07T07:49:46.739Z,17.60
2018-07-07T07:52:22.334Z,17.70
2018-07-07T07:54:57.651Z,17.60
2018-07-07T07:57:39.117Z,17.70
2018-07-07T08:02:47.468Z,17.70
2018-07-07T08:05:22.114Z,17.80
2018-07-07T08:13:13.613Z,18.10
2018-07-07T08:15:49.549Z,18.20
2018-07-07T08:18:26.370Z,18.50
2018-07-07T08:21:01.183Z,18.40
2018-07-07T08:23:35.429Z,18.60
2018-07-07T08:26:13.709Z,18.90
2018-07-07T08:28:50.397Z,19.00
2018-07-07T08:31:25.359Z,19.20
2018-07-07T08:34:01.472Z,19.50
2018-07-07T08:36:37.780Z,19.40
2018-07-07T08:39:14.625Z,19.40
2018-07-07T08:41:50.529Z,19.30
2018-07-07T08:44:25.535Z,19.40
2018-07-07T08:47:02.453Z,19.20
2018-07-07T08:49:37.550Z,19.40
2018-07-07T08:52:14.885Z,19.20
2018-07-07T08:54:54.280Z,19.10
2018-07-07T08:57:29.183Z,19.30
2018-07-07T09:00:05.662Z,19.70
2018-07-07T09:02:41.392Z,19.60
2018-07-07T09:05:15.630Z,19.50
2018-07-07T09:07:50.034Z,19.20
2018-07-07T09:10:24.295Z,19.40
2018-07-07T09:13:00.764Z,19.70
2018-07-07T09:15:36.685Z,19.80
2018-07-07T09:18:12.408Z,19.90
2018-07-07T09:20:46.692Z,20.10
2018-07-07T09:23:21.550Z,20.00
2018-07-07T09:25:57.376Z,19.80
2018-07-07T09:28:33.590Z,19.50
2018-07-07T09:31:09.321Z,19.40
2018-07-07T09:33:45.988Z,19.60
2018-07-07T09:36:22.520Z,19.90
2018-07-07T09:38:57.548Z,20.00
2018-07-07T09:41:33.145Z,20.00
2018-07-07T09:44:07.647Z,20.20
2018-07-07T09:46:42.684Z,20.20
2018-07-07T09:49:21.907Z,20.20
2018-07-07T09:51:58.302Z,20.00
2018-07-07T09:54:34.635Z,19.90
2018-07-07T09:57:10.187Z,20.30
2018-07-07T09:59:45.030Z,20.60
2018-07-07T10:02:20.857Z,20.50
2018-07-07T10:04:58.455Z,20.30
2018-07-07T10:07:33.061Z,20.40
2018-07-07T10:10:08.706Z,20.60
2018-07-07T10:12:43.469Z,20.30
2018-07-07T10:15:18.189Z,20.40
2018-07-07T10:17:55.292Z,20.80
2018-07-07T10:20:31.409Z,21.10
2018-07-07T10:23:05.856Z,21.20
2018-07-07T10:25:40.733Z,21.30
2018-07-07T10:28:15.047Z,21.50
2018-07-07T10:30:52.504Z,21.50
2018-07-07T10:33:27.887Z,21.50
2018-07-07T10:36:02.687Z,21.50
2018-07-07T10:38:37.328Z,21.30
2018-07-07T10:41:13.453Z,21.50
2018-07-07T10:43:47.769Z,21.50
2018-07-07T10:46:22.304Z,21.40
2018-07-07T10:48:57.366Z,21.20
2018-07-07T10:51:32.817Z,21.10
2018-07-07T10:54:09.027Z,21.20
2018-07-07T10:56:44.593Z,21.20
2018-07-07T10:59:20.072Z,21.50
2018-07-07T11:01:55.608Z,21.50
2018-07-07T11:04:31.232Z,21.40
2018-07-07T11:07:08.305Z,21.20
2018-07-07T11:09:42.723Z,20.90
2018-07-07T11:12:17.616Z,20.80
2018-07-07T11:14:53.716Z,21.00
2018-07-07T11:17:28.272Z,21.20
2018-07-07T11:20:03.725Z,21.20
2018-07-07T11:22:38.155Z,21.00
2018-07-07T11:25:12.443Z,21.00
2018-07-07T11:27:47.235Z,21.20
2018-07-07T11:30:21.651Z,21.40
2018-07-07T11:35:33.764Z,21.50
2018-07-07T11:38:08.184Z,21.40
2018-07-07T11:40:43.002Z,21.50
2018-07-07T11:43:17.973Z,21.40
2018-07-07T11:45:54.244Z,21.50
2018-07-07T11:51:04.893Z,21.80
2018-07-07T11:53:39.778Z,21.80
2018-07-07T11:56:15.061Z,21.90
2018-07-07T11:58:50.519Z,21.80
2018-07-07T12:01:24.905Z,22.00
2018-07-07T12:03:59.141Z,22.30
2018-07-07T12:06:37.664Z,22.60
2018-07-07T12:09:14.051Z,22.90
2018-07-07T12:11:49.321Z,23.00
2018-07-07T12:14:24.737Z,23.30
2018-07-07T12:17:00.254Z,23.60
2018-07-07T12:19:38.597Z,23.80
2018-07-07T12:22:13.924Z,24.20
2018-07-07T12:24:49.697Z,24.30
2018-07-07T12:27:25.415Z,23.90
2018-07-07T12:29:59.745Z,24.50
2018-07-07T12:32:35.443Z,24.70
2018-07-07T12:35:10.531Z,24.70
2018-07-07T12:37:45.957Z,25.00
2018-07-07T12:40:21.020Z,25.50
2018-07-07T12:42:56.036Z,26.10
2018-07-07T12:45:31.232Z,26.70
2018-07-07T12:48:06.737Z,26.80
2018-07-07T12:50:41.009Z,27.00
2018-07-07T12:53:16.347Z,26.80
2018-07-07T12:55:50.974Z,26.70
2018-07-07T12:58:26.952Z,26.70
2018-07-07T13:01:01.418Z,26.90
2018-07-07T13:03:37.544Z,26.10
2018-07-07T13:06:12.394Z,26.50
2018-07-07T13:08:46.856Z,27.00
2018-07-07T13:11:22.168Z,27.50
2018-07-07T13:13:57.022Z,27.80
2018-07-07T13:16:31.962Z,28.50
2018-07-07T13:19:10.314Z,28.90
2018-07-07T13:21:45.305Z,28.80
2018-07-07T13:24:23.566Z,28.70
2018-07-07T13:26:58.463Z,29.00
2018-07-07T13:29:34.855Z,29.10
2018-07-07T13:32:11.126Z,29.30
2018-07-07T13:34:47.798Z,29.50
2018-07-07T13:37:27.441Z,29.70
2018-07-07T13:40:03.525Z,30.60
2018-07-07T13:42:38.214Z,30.70
2018-07-07T13:45:16.797Z,30.60
2018-07-07T13:47:58.468Z,29.50
2018-07-07T13:50:33.559Z,29.00
2018-07-07T13:53:14.756Z,29.40
2018-07-07T13:55:51.384Z,30.20
2018-07-07T13:58:28.728Z,30.50
2018-07-07T14:01:06.091Z,31.60
2018-07-07T14:03:42.000Z,31.80
2018-07-07T14:06:20.336Z,32.00
2018-07-07T14:08:58.329Z,32.10
2018-07-07T14:11:35.590Z,31.30
2018-07-07T14:14:15.762Z,31.40
2018-07-07T14:16:58.077Z,31.60
2018-07-07T14:19:41.524Z,32.10
2018-07-07T14:22:17.313Z,32.10
2018-07-07T14:24:51.669Z,31.90
2018-07-07T14:27:26.684Z,32.20
2018-07-07T14:30:02.301Z,31.70
2018-07-07T14:32:38.540Z,32.60
2018-07-07T14:35:13.810Z,32.30
2018-07-07T14:37:49.117Z,32.20
2018-07-07T14:40:24.727Z,32.50
2018-07-07T14:43:01.621Z,31.80
2018-07-07T14:45:40.638Z,32.00
2018-07-07T14:48:16.845Z,32.60
2018-07-07T14:50:54.175Z,31.70
2018-07-07T14:53:29.547Z,33.00
2018-07-07T14:56:05.606Z,33.10
2018-07-07T14:58:40.134Z,32.60
2018-07-07T15:01:16.083Z,32.60
2018-07-07T15:03:52.728Z,32.20
2018-07-07T15:06:39.568Z,33.00
2018-07-07T15:09:13.993Z,33.50
2018-07-07T15:11:50.424Z,33.00
2018-07-07T15:14:24.993Z,32.40
2018-07-07T15:17:00.848Z,32.30
2018-07-07T15:19:37.712Z,32.80
2018-07-07T15:22:13.949Z,33.20
2018-07-07T15:24:51.269Z,33.10
2018-07-07T15:27:28.011Z,33.10
2018-07-07T15:30:02.881Z,32.70
2018-07-07T15:32:39.082Z,33.50
2018-07-07T15:35:14.269Z,33.30
2018-07-07T15:37:50.699Z,33.20
2018-07-07T15:43:04.693Z,34.70
2018-07-07T15:45:49.173Z,35.00
2018-07-07T15:48:24.612Z,36.30
2018-07-07T15:50:59.086Z,36.20
2018-07-07T15:53:33.708Z,36.60
2018-07-07T15:56:08.078Z,35.10
2018-07-07T15:58:43.436Z,36.00
2018-07-07T16:01:20.159Z,36.10
2018-07-07T16:03:54.493Z,35.30
2018-07-07T16:06:29.215Z,35.30
2018-07-07T16:09:05.000Z,35.50
2018-07-07T16:11:39.869Z,35.20
2018-07-07T16:14:14.126Z,34.80
2018-07-07T16:16:49.971Z,35.60
2018-07-07T16:19:24.457Z,34.40
2018-07-07T16:21:59.056Z,32.80
2018-07-07T16:24:34.508Z,33.20
2018-07-07T16:27:08.791Z,33.10
2018-07-07T16:29:44.535Z,33.50
2018-07-07T16:32:20.158Z,32.70
2018-07-07T16:34:54.505Z,33.00
2018-07-07T16:37:29.228Z,34.30
2018-07-07T16:40:03.818Z,34.70
2018-07-07T16:42:40.516Z,33.70
2018-07-07T16:45:15.311Z,33.60
2018-07-07T16:47:49.583Z,34.80
2018-07-07T16:50:25.121Z,34.50
2018-07-07T16:53:00.927Z,35.40
2018-07-07T16:55:35.201Z,36.00
2018-07-07T16:58:14.115Z,36.20
2018-07-07T17:00:48.425Z,34.30
2018-07-07T17:03:23.853Z,32.70
2018-07-07T17:05:58.689Z,32.20
2018-07-07T17:08:33.123Z,33.20
2018-07-07T17:11:12.314Z,33.00
2018-07-07T17:13:48.163Z,32.10
2018-07-07T17:16:25.721Z,31.20
2018-07-07T17:19:01.877Z,30.20
2018-07-07T17:21:37.120Z,31.20
2018-07-07T17:24:11.934Z,30.70
2018-07-07T17:26:46.749Z,31.40
2018-07-07T17:29:22.309Z,31.50
2018-07-07T17:31:59.471Z,29.40
2018-07-07T17:34:38.603Z,28.30
2018-07-07T17:37:14.744Z,27.50
2018-07-07T17:39:49.388Z,28.00
2018-07-07T17:42:26.129Z,28.30
2018-07-07T17:45:03.386Z,27.90
2018-07-07T17:47:40.344Z,27.20
2018-07-07T17:50:16.998Z,26.90
2018-07-07T17:52:53.176Z,27.00
2018-07-07T17:55:30.036Z,26.70
2018-07-07T17:58:09.945Z,27.20
2018-07-07T18:00:47.962Z,27.10
2018-07-07T18:03:23.357Z,26.40
2018-07-07T18:05:58.585Z,26.00
2018-07-07T18:08:35.505Z,25.50
2018-07-07T18:11:10.184Z,25.10
2018-07-07T18:13:44.449Z,24.50
2018-07-07T18:16:20.670Z,24.60
2018-07-07T18:19:00.835Z,24.80
2018-07-07T18:21:36.800Z,24.40
2018-07-07T18:24:12.017Z,24.40
2018-07-07T18:26:51.373Z,24.30
2018-07-07T18:29:28.539Z,24.20
2018-07-07T18:32:04.697Z,24.10
2018-07-07T18:34:49.706Z,24.20
2018-07-07T18:37:24.682Z,24.60
2018-07-07T18:40:00.604Z,24.50
2018-07-07T18:42:35.027Z,23.70
2018-07-07T18:45:10.005Z,23.10
2018-07-07T18:47:45.099Z,22.50
2018-07-07T18:50:22.181Z,22.00
2018-07-07T18:52:59.312Z,21.70
2018-07-07T18:55:34.521Z,21.40
2018-07-07T18:58:09.898Z,21.30
2018-07-07T19:00:45.675Z,21.20
2018-07-07T19:03:21.047Z,21.20
2018-07-07T19:06:00.232Z,21.00
2018-07-07T19:08:37.309Z,20.70
2018-07-07T19:11:11.883Z,20.60
2018-07-07T19:13:46.122Z,20.30
2018-07-07T19:16:21.764Z,20.10
2018-07-07T19:18:56.733Z,20.00
2018-07-07T19:21:37.231Z,19.80
2018-07-07T19:26:18.418Z,19.70
2018-07-07T19:28:56.441Z,19.50
2018-07-07T19:31:30.727Z,19.40
2018-07-07T19:34:10.845Z,19.20
2018-07-07T19:36:50.534Z,19.10
2018-07-07T19:39:25.055Z,19.00
2018-07-07T19:42:00.986Z,18.80
2018-07-07T19:44:35.793Z,18.80
2018-07-07T19:47:11.637Z,18.70
2018-07-07T19:49:47.552Z,18.60
2018-07-07T19:52:21.727Z,18.50
2018-07-07T19:54:56.588Z,18.40
2018-07-07T19:57:30.881Z,18.30
2018-07-07T20:00:05.284Z,18.30
2018-07-07T20:02:39.891Z,18.20
2018-07-07T20:05:14.291Z,18.20
2018-07-07T20:07:51.382Z,18.10
2018-07-07T20:10:27.874Z,18.00
2018-07-07T20:13:02.060Z,17.90
2018-07-07T20:15:48.958Z,17.80
2018-07-07T20:18:33.041Z,17.80
2018-07-07T20:21:25.154Z,17.70
2018-07-07T20:24:01.353Z,17.60
2018-07-07T20:26:36.557Z,17.50
2018-07-07T20:29:12.210Z,17.50
2018-07-07T20:31:51.951Z,17.40
2018-07-07T20:34:29.851Z,17.30
2018-07-07T20:37:03.995Z,17.20
2018-07-07T20:39:39.378Z,17.10
2018-07-07T20:42:13.620Z,17.10
2018-07-07T20:44:47.851Z,17.00
2018-07-07T20:47:22.152Z,16.90
2018-07-07T20:52:32.109Z,16.80
2018-07-07T20:55:06.513Z,16.70
2018-07-07T20:57:40.918Z,16.70
2018-07-07T21:00:16.790Z,16.60
2018-07-07T21:02:54.013Z,16.50
2018-07-07T21:05:29.554Z,16.40
2018-07-07T21:10:49.540Z,16.40
2018-07-07T21:13:28.313Z,16.30
2018-07-07T21:16:04.148Z,16.20
2018-07-07T21:18:42.036Z,16.10
2018-07-07T21:21:18.989Z,16.10
2018-07-07T21:23:54.343Z,16.10
2018-07-07T21:26:38.392Z,16.00
2018-07-07T21:29:16.352Z,16.00
2018-07-07T21:31:52.685Z,15.90
2018-07-07T21:34:33.965Z,15.90
2018-07-07T21:37:11.076Z,15.80
2018-07-07T21:39:47.902Z,15.80
2018-07-07T21:42:28.229Z,15.70
2018-07-07T21:45:02.836Z,15.70
2018-07-07T21:47:38.618Z,15.60
2018-07-07T21:50:13.216Z,15.60
2018-07-07T21:52:49.173Z,15.60
2018-07-07T21:55:24.115Z,15.50
2018-07-07T21:58:04.954Z,15.50
2018-07-07T22:00:56.220Z,15.40
2018-07-07T22:03:36.182Z,15.40
2018-07-07T22:06:11.997Z,15.30
2018-07-07T22:08:55.143Z,15.30
2018-07-07T22:11:31.250Z,15.20
2018-07-07T22:14:07.343Z,15.20
2018-07-07T22:16:42.869Z,15.20
2018-07-07T22:19:18.679Z,15.10
2018-07-07T22:21:56.306Z,15.10
2018-07-07T22:24:33.427Z,15.00
2018-07-07T22:27:10.778Z,14.90
2018-07-07T22:29:46.350Z,14.90
2018-07-07T22:32:22.972Z,14.90
2018-07-07T22:35:02.280Z,14.90
2018-07-07T22:37:36.912Z,14.80
2018-07-07T22:40:11.352Z,14.70
2018-07-07T22:42:48.801Z,14.70
2018-07-07T22:45:25.991Z,14.70
2018-07-07T22:48:00.670Z,14.60
2018-07-07T22:50:36.325Z,14.60
2018-07-07T22:55:51.132Z,14.50
2018-07-07T22:58:25.543Z,14.50
2018-07-07T23:01:02.662Z,14.50
2018-07-07T23:03:43.832Z,14.40
2018-07-07T23:06:19.685Z,14.40
2018-07-07T23:08:57.691Z,14.40
2018-07-07T23:11:34.944Z,14.40
2018-07-07T23:14:15.669Z,14.40
2018-07-07T23:16:51.372Z,14.40
2018-07-07T23:19:33.975Z,14.30
2018-07-07T23:22:09.492Z,14.30
2018-07-07T23:24:50.722Z,14.30
2018-07-07T23:27:27.185Z,14.30
2018-07-07T23:30:03.740Z,14.20
2018-07-07T23:32:38.882Z,14.20
2018-07-07T23:35:14.126Z,14.10
2018-07-07T23:37:50.220Z,14.10
2018-07-07T23:40:28.116Z,14.10
2018-07-07T23:43:05.930Z,14.10
2018-07-07T23:45:42.093Z,14.00
2018-07-07T23:48:17.096Z,14.00
2018-07-07T23:50:52.987Z,14.00
2018-07-07T23:53:28.891Z,14.00
2018-07-07T23:56:13.676Z,13.90
2018-07-07T23:58:48.236Z,13.90
